sensor_id;sensor_type;location;lat;lon;timestamp;temperature;humidity
75769;DHT22;64379;48.888;8.330;2024-03-23T00:54:23;10.60;77.20
75769;DHT22;64379;48.888;8.330;2024-03-23T00:56:49;10.70;76.50
75769;DHT22;64379;48.888;8.330;2024-03-23T00:59:14;10.60;76.50
75769;DHT22;64379;48.888;8.330;2024-03-23T01:01:40;10.50;76.60
75769;DHT22;64379;48.888;8.330;2024-03-23T01:04:05;10.60;76.50
75769;DHT22;64379;48.888;8.330;2024-03-23T01:06:31;10.70;76.10
75769;DHT22;64379;48.888;8.330;2024-03-23T01:08:56;10.90;74.20
75769;DHT22;64379;48.888;8.330;2024-03-23T01:11:22;11.30;72.30
75769;DHT22;64379;48.888;8.330;2024-03-23T01:13:48;11.70;69.60
75769;DHT22;64379;48.888;8.330;2024-03-23T01:16:13;12.10;67.80
75769;DHT22;64379;48.888;8.330;2024-03-23T01:18:39;12.30;66.60
75769;DHT22;64379;48.888;8.330;2024-03-23T01:21:04;12.50;66.20
75769;DHT22;64379;48.888;8.330;2024-03-23T01:23:30;12.50;66.00
75769;DHT22;64379;48.888;8.330;2024-03-23T01:25:56;12.50;65.80
75769;DHT22;64379;48.888;8.330;2024-03-23T01:28:21;12.50;65.40
75769;DHT22;64379;48.888;8.330;2024-03-23T01:30:48;12.50;65.20
75769;DHT22;64379;48.888;8.330;2024-03-23T01:33:13;12.50;65.20
75769;DHT22;64379;48.888;8.330;2024-03-23T01:35:39;12.50;65.50
75769;DHT22;64379;48.888;8.330;2024-03-23T01:38:05;12.50;65.50
75769;DHT22;64379;48.888;8.330;2024-03-23T01:40:31;12.50;65.80
75769;DHT22;64379;48.888;8.330;2024-03-23T01:43:07;12.50;65.80
75769;DHT22;64379;48.888;8.330;2024-03-23T01:45:33;12.50;65.70
75769;DHT22;64379;48.888;8.330;2024-03-23T01:48:00;12.50;65.60
75769;DHT22;64379;48.888;8.330;2024-03-23T01:50:26;12.50;65.60
75769;DHT22;64379;48.888;8.330;2024-03-23T01:52:53;12.50;65.50
75769;DHT22;64379;48.888;8.330;2024-03-23T01:55:19;12.50;65.40
75769;DHT22;64379;48.888;8.330;2024-03-23T01:57:45;12.60;65.30
75769;DHT22;64379;48.888;8.330;2024-03-23T02:00:11;12.70;65.10
75769;DHT22;64379;48.888;8.330;2024-03-23T02:02:46;12.70;65.10
75769;DHT22;64379;48.888;8.330;2024-03-23T02:05:12;12.70;65.00
75769;DHT22;64379;48.888;8.330;2024-03-23T02:07:42;12.80;65.00
75769;DHT22;64379;48.888;8.330;2024-03-23T02:10:09;12.80;64.70
75769;DHT22;64379;48.888;8.330;2024-03-23T02:12:35;12.80;64.50
75769;DHT22;64379;48.888;8.330;2024-03-23T02:15:01;12.90;64.30
75769;DHT22;64379;48.888;8.330;2024-03-23T02:17:29;13.00;64.00
75769;DHT22;64379;48.888;8.330;2024-03-23T02:19:55;13.10;63.80
75769;DHT22;64379;48.888;8.330;2024-03-23T02:22:21;13.10;63.60
75769;DHT22;64379;48.888;8.330;2024-03-23T02:24:46;13.10;63.50
75769;DHT22;64379;48.888;8.330;2024-03-23T02:27:12;13.10;63.50
75769;DHT22;64379;48.888;8.330;2024-03-23T02:29:38;13.10;63.30
75769;DHT22;64379;48.888;8.330;2024-03-23T02:32:04;13.10;63.60
75769;DHT22;64379;48.888;8.330;2024-03-23T02:34:29;13.10;63.70
75769;DHT22;64379;48.888;8.330;2024-03-23T02:36:55;13.10;63.70
75769;DHT22;64379;48.888;8.330;2024-03-23T02:39:20;13.10;63.70
75769;DHT22;64379;48.888;8.330;2024-03-23T02:41:46;13.10;63.70
75769;DHT22;64379;48.888;8.330;2024-03-23T02:44:13;13.10;63.70
75769;DHT22;64379;48.888;8.330;2024-03-23T02:46:39;13.00;63.80
75769;DHT22;64379;48.888;8.330;2024-03-23T02:49:05;13.00;64.00
75769;DHT22;64379;48.888;8.330;2024-03-23T02:51:31;13.00;64.10
75769;DHT22;64379;48.888;8.330;2024-03-23T02:53:57;13.00;64.20
75769;DHT22;64379;48.888;8.330;2024-03-23T02:56:22;13.00;64.50
75769;DHT22;64379;48.888;8.330;2024-03-23T02:58:48;12.90;64.50
75769;DHT22;64379;48.888;8.330;2024-03-23T03:01:16;12.90;64.60
75769;DHT22;64379;48.888;8.330;2024-03-23T03:03:42;12.80;65.00
75769;DHT22;64379;48.888;8.330;2024-03-23T03:06:08;12.70;65.40
75769;DHT22;64379;48.888;8.330;2024-03-23T03:08:34;12.60;65.50
75769;DHT22;64379;48.888;8.330;2024-03-23T03:11:03;12.50;65.80
75769;DHT22;64379;48.888;8.330;2024-03-23T03:13:28;12.50;65.90
75769;DHT22;64379;48.888;8.330;2024-03-23T03:15:54;12.50;66.20
75769;DHT22;64379;48.888;8.330;2024-03-23T03:18:20;12.50;66.40
75769;DHT22;64379;48.888;8.330;2024-03-23T03:20:45;12.50;66.40
75769;DHT22;64379;48.888;8.330;2024-03-23T03:23:11;12.50;66.70
75769;DHT22;64379;48.888;8.330;2024-03-23T03:25:36;12.50;66.80
75769;DHT22;64379;48.888;8.330;2024-03-23T03:28:03;12.50;66.90
75769;DHT22;64379;48.888;8.330;2024-03-23T03:30:29;12.50;66.80
75769;DHT22;64379;48.888;8.330;2024-03-23T03:32:55;12.50;66.90
75769;DHT22;64379;48.888;8.330;2024-03-23T03:35:26;12.50;66.90
75769;DHT22;64379;48.888;8.330;2024-03-23T03:37:52;12.50;67.10
75769;DHT22;64379;48.888;8.330;2024-03-23T03:40:20;12.50;67.20
75769;DHT22;64379;48.888;8.330;2024-03-23T03:42:48;12.50;67.50
75769;DHT22;64379;48.888;8.330;2024-03-23T03:45:14;12.30;68.50
75769;DHT22;64379;48.888;8.330;2024-03-23T03:47:40;12.10;70.30
75769;DHT22;64379;48.888;8.330;2024-03-23T03:50:06;11.90;71.70
75769;DHT22;64379;48.888;8.330;2024-03-23T03:52:34;11.80;72.50
75769;DHT22;64379;48.888;8.330;2024-03-23T03:55:03;11.70;73.00
75769;DHT22;64379;48.888;8.330;2024-03-23T03:57:29;11.60;72.90
75769;DHT22;64379;48.888;8.330;2024-03-23T03:59:54;11.60;71.80
75769;DHT22;64379;48.888;8.330;2024-03-23T04:02:20;11.70;70.50
75769;DHT22;64379;48.888;8.330;2024-03-23T04:04:46;11.70;70.50
75769;DHT22;64379;48.888;8.330;2024-03-23T04:07:11;11.70;70.00
75769;DHT22;64379;48.888;8.330;2024-03-23T04:09:37;11.70;69.20
75769;DHT22;64379;48.888;8.330;2024-03-23T04:12:03;11.70;69.50
75769;DHT22;64379;48.888;8.330;2024-03-23T04:14:28;11.70;69.30
75769;DHT22;64379;48.888;8.330;2024-03-23T04:16:59;11.70;69.00
75769;DHT22;64379;48.888;8.330;2024-03-23T04:19:25;11.70;69.30
75769;DHT22;64379;48.888;8.330;2024-03-23T04:21:50;11.70;69.80
75769;DHT22;64379;48.888;8.330;2024-03-23T04:24:19;11.70;69.30
75769;DHT22;64379;48.888;8.330;2024-03-23T04:26:48;11.70;69.30
75769;DHT22;64379;48.888;8.330;2024-03-23T04:29:13;11.70;69.70
75769;DHT22;64379;48.888;8.330;2024-03-23T04:31:39;11.60;69.80
75769;DHT22;64379;48.888;8.330;2024-03-23T04:34:07;11.60;69.70
75769;DHT22;64379;48.888;8.330;2024-03-23T04:36:36;11.50;69.80
75769;DHT22;64379;48.888;8.330;2024-03-23T04:39:04;11.40;71.20
75769;DHT22;64379;48.888;8.330;2024-03-23T04:41:30;11.30;72.00
75769;DHT22;64379;48.888;8.330;2024-03-23T04:43:55;11.10;72.90
75769;DHT22;64379;48.888;8.330;2024-03-23T04:46:21;11.10;73.40
75769;DHT22;64379;48.888;8.330;2024-03-23T04:48:46;11.00;73.80
75769;DHT22;64379;48.888;8.330;2024-03-23T04:51:24;10.90;73.60
75769;DHT22;64379;48.888;8.330;2024-03-23T04:53:50;10.90;73.40
75769;DHT22;64379;48.888;8.330;2024-03-23T04:56:16;10.80;72.90
75769;DHT22;64379;48.888;8.330;2024-03-23T04:58:48;10.80;73.70
75769;DHT22;64379;48.888;8.330;2024-03-23T05:01:13;10.70;73.20
75769;DHT22;64379;48.888;8.330;2024-03-23T05:03:39;10.70;73.40
75769;DHT22;64379;48.888;8.330;2024-03-23T05:06:04;10.60;72.10
75769;DHT22;64379;48.888;8.330;2024-03-23T05:12:03;10.60;71.80
75769;DHT22;64379;48.888;8.330;2024-03-23T05:14:29;10.60;70.00
75769;DHT22;64379;48.888;8.330;2024-03-23T05:16:55;10.60;70.10
75769;DHT22;64379;48.888;8.330;2024-03-23T05:22:50;10.50;69.30
75769;DHT22;64379;48.888;8.330;2024-03-23T05:25:16;10.40;69.10
75769;DHT22;64379;48.888;8.330;2024-03-23T05:31:27;10.30;67.90
75769;DHT22;64379;48.888;8.330;2024-03-23T05:33:54;10.20;66.70
75769;DHT22;64379;48.888;8.330;2024-03-23T05:36:54;10.10;67.50
75769;DHT22;64379;48.888;8.330;2024-03-23T05:39:44;10.00;68.00
75769;DHT22;64379;48.888;8.330;2024-03-23T05:42:18;10.00;68.40
75769;DHT22;64379;48.888;8.330;2024-03-23T05:44:45;10.00;68.20
75769;DHT22;64379;48.888;8.330;2024-03-23T05:47:11;9.90;68.40
75769;DHT22;64379;48.888;8.330;2024-03-23T05:49:38;9.80;68.00
75769;DHT22;64379;48.888;8.330;2024-03-23T05:52:04;9.70;69.00
75769;DHT22;64379;48.888;8.330;2024-03-23T05:54:30;9.70;69.20
75769;DHT22;64379;48.888;8.330;2024-03-23T05:57:02;9.60;69.60
75769;DHT22;64379;48.888;8.330;2024-03-23T05:59:28;9.50;69.70
75769;DHT22;64379;48.888;8.330;2024-03-23T06:01:54;9.50;70.00
75769;DHT22;64379;48.888;8.330;2024-03-23T06:04:20;9.50;70.60
75769;DHT22;64379;48.888;8.330;2024-03-23T06:06:46;9.40;70.80
75769;DHT22;64379;48.888;8.330;2024-03-23T06:09:12;9.40;71.20
75769;DHT22;64379;48.888;8.330;2024-03-23T06:11:37;9.40;71.30
75769;DHT22;64379;48.888;8.330;2024-03-23T06:14:03;9.40;71.40
75769;DHT22;64379;48.888;8.330;2024-03-23T06:16:29;9.40;72.10
75769;DHT22;64379;48.888;8.330;2024-03-23T06:18:56;9.40;72.40
75769;DHT22;64379;48.888;8.330;2024-03-23T06:21:21;9.40;72.20
75769;DHT22;64379;48.888;8.330;2024-03-23T06:23:51;9.30;72.60
75769;DHT22;64379;48.888;8.330;2024-03-23T06:26:30;9.20;72.70
75769;DHT22;64379;48.888;8.330;2024-03-23T06:29:11;9.20;73.10
75769;DHT22;64379;48.888;8.330;2024-03-23T06:31:37;9.20;72.60
75769;DHT22;64379;48.888;8.330;2024-03-23T06:34:03;9.20;72.50
75769;DHT22;64379;48.888;8.330;2024-03-23T06:36:29;9.20;72.50
75769;DHT22;64379;48.888;8.330;2024-03-23T06:38:56;9.20;73.00
75769;DHT22;64379;48.888;8.330;2024-03-23T06:41:39;9.20;72.80
75769;DHT22;64379;48.888;8.330;2024-03-23T06:44:05;9.20;72.70
75769;DHT22;64379;48.888;8.330;2024-03-23T06:46:36;9.20;72.90
75769;DHT22;64379;48.888;8.330;2024-03-23T06:49:01;9.10;73.30
75769;DHT22;64379;48.888;8.330;2024-03-23T06:51:27;9.10;74.20
75769;DHT22;64379;48.888;8.330;2024-03-23T06:53:56;9.00;74.20
75769;DHT22;64379;48.888;8.330;2024-03-23T06:56:22;9.00;74.70
75769;DHT22;64379;48.888;8.330;2024-03-23T06:58:53;8.90;74.30
75769;DHT22;64379;48.888;8.330;2024-03-23T07:01:19;8.80;73.60
75769;DHT22;64379;48.888;8.330;2024-03-23T07:03:45;8.80;74.00
75769;DHT22;64379;48.888;8.330;2024-03-23T07:06:10;8.90;73.50
75769;DHT22;64379;48.888;8.330;2024-03-23T07:08:36;8.90;73.70
75769;DHT22;64379;48.888;8.330;2024-03-23T07:11:02;8.90;74.20
75769;DHT22;64379;48.888;8.330;2024-03-23T07:13:30;8.90;74.60
75769;DHT22;64379;48.888;8.330;2024-03-23T07:15:56;8.80;75.70
75769;DHT22;64379;48.888;8.330;2024-03-23T07:18:23;8.80;76.60
75769;DHT22;64379;48.888;8.330;2024-03-23T07:20:56;8.80;77.10
75769;DHT22;64379;48.888;8.330;2024-03-23T07:23:22;8.80;75.80
75769;DHT22;64379;48.888;8.330;2024-03-23T07:26:04;8.80;75.20
75769;DHT22;64379;48.888;8.330;2024-03-23T07:28:39;8.80;74.30
75769;DHT22;64379;48.888;8.330;2024-03-23T07:31:11;9.00;73.90
75769;DHT22;64379;48.888;8.330;2024-03-23T07:33:43;9.10;73.70
75769;DHT22;64379;48.888;8.330;2024-03-23T07:36:15;9.00;73.40
75769;DHT22;64379;48.888;8.330;2024-03-23T07:38:49;9.00;73.60
75769;DHT22;64379;48.888;8.330;2024-03-23T07:41:19;8.90;73.00
75769;DHT22;64379;48.888;8.330;2024-03-23T07:43:46;9.00;73.30
75769;DHT22;64379;48.888;8.330;2024-03-23T07:46:12;9.00;71.70
75769;DHT22;64379;48.888;8.330;2024-03-23T07:48:38;8.90;72.30
75769;DHT22;64379;48.888;8.330;2024-03-23T07:51:06;8.90;71.30
75769;DHT22;64379;48.888;8.330;2024-03-23T07:53:32;9.00;71.20
75769;DHT22;64379;48.888;8.330;2024-03-23T07:56:03;8.90;71.00
75769;DHT22;64379;48.888;8.330;2024-03-23T07:58:29;9.00;70.60
75769;DHT22;64379;48.888;8.330;2024-03-23T08:01:06;9.20;71.20
75769;DHT22;64379;48.888;8.330;2024-03-23T08:03:35;9.20;70.50
75769;DHT22;64379;48.888;8.330;2024-03-23T08:06:14;9.10;69.80
75769;DHT22;64379;48.888;8.330;2024-03-23T08:08:42;9.30;68.60
75769;DHT22;64379;48.888;8.330;2024-03-23T08:11:07;9.80;67.50
75769;DHT22;64379;48.888;8.330;2024-03-23T08:13:34;9.80;66.50
75769;DHT22;64379;48.888;8.330;2024-03-23T08:16:01;9.60;65.60
75769;DHT22;64379;48.888;8.330;2024-03-23T08:18:27;9.50;65.10
75769;DHT22;64379;48.888;8.330;2024-03-23T08:21:03;9.20;65.30
75769;DHT22;64379;48.888;8.330;2024-03-23T08:23:30;9.20;65.50
75769;DHT22;64379;48.888;8.330;2024-03-23T08:25:58;9.20;63.80
75769;DHT22;64379;48.888;8.330;2024-03-23T08:28:24;9.00;63.40
75769;DHT22;64379;48.888;8.330;2024-03-23T08:30:51;9.00;63.50
75769;DHT22;64379;48.888;8.330;2024-03-23T08:33:17;9.00;62.70
75769;DHT22;64379;48.888;8.330;2024-03-23T08:35:52;9.00;62.30
75769;DHT22;64379;48.888;8.330;2024-03-23T08:38:18;9.20;61.90
75769;DHT22;64379;48.888;8.330;2024-03-23T08:40:44;9.20;61.20
75769;DHT22;64379;48.888;8.330;2024-03-23T08:43:14;9.20;60.90
75769;DHT22;64379;48.888;8.330;2024-03-23T08:45:43;9.40;61.50
75769;DHT22;64379;48.888;8.330;2024-03-23T08:48:08;9.20;60.20
75769;DHT22;64379;48.888;8.330;2024-03-23T08:50:34;9.20;60.50
75769;DHT22;64379;48.888;8.330;2024-03-23T08:53:02;9.20;59.70
75769;DHT22;64379;48.888;8.330;2024-03-23T08:55:31;9.20;60.40
75769;DHT22;64379;48.888;8.330;2024-03-23T08:57:57;9.40;60.70
75769;DHT22;64379;48.888;8.330;2024-03-23T09:00:22;9.60;60.70
75769;DHT22;64379;48.888;8.330;2024-03-23T09:02:48;9.70;58.70
75769;DHT22;64379;48.888;8.330;2024-03-23T09:05:14;9.90;57.80
75769;DHT22;64379;48.888;8.330;2024-03-23T09:07:39;10.00;57.90
75769;DHT22;64379;48.888;8.330;2024-03-23T09:10:06;10.60;56.00
75769;DHT22;64379;48.888;8.330;2024-03-23T09:12:33;10.90;54.30
75769;DHT22;64379;48.888;8.330;2024-03-23T09:14:58;11.40;53.20
75769;DHT22;64379;48.888;8.330;2024-03-23T09:17:24;11.70;51.80
75769;DHT22;64379;48.888;8.330;2024-03-23T09:19:50;11.50;52.20
75769;DHT22;64379;48.888;8.330;2024-03-23T09:22:15;11.40;52.80
75769;DHT22;64379;48.888;8.330;2024-03-23T09:24:41;11.70;52.90
75769;DHT22;64379;48.888;8.330;2024-03-23T09:27:06;11.90;52.60
75769;DHT22;64379;48.888;8.330;2024-03-23T09:29:32;11.70;52.60
75769;DHT22;64379;48.888;8.330;2024-03-23T09:32:03;11.30;54.40
75769;DHT22;64379;48.888;8.330;2024-03-23T09:34:29;10.80;56.10
75769;DHT22;64379;48.888;8.330;2024-03-23T09:36:54;10.80;55.20
75769;DHT22;64379;48.888;8.330;2024-03-23T09:39:20;10.40;53.60
75769;DHT22;64379;48.888;8.330;2024-03-23T09:41:46;10.20;54.20
75769;DHT22;64379;48.888;8.330;2024-03-23T09:44:12;10.10;54.30
75769;DHT22;64379;48.888;8.330;2024-03-23T09:46:38;10.00;54.90
75769;DHT22;64379;48.888;8.330;2024-03-23T09:49:18;9.90;54.50
75769;DHT22;64379;48.888;8.330;2024-03-23T09:51:44;9.70;56.00
75769;DHT22;64379;48.888;8.330;2024-03-23T09:54:10;9.20;61.20
75769;DHT22;64379;48.888;8.330;2024-03-23T09:56:36;8.50;66.60
75769;DHT22;64379;48.888;8.330;2024-03-23T09:59:02;7.50;71.70
75769;DHT22;64379;48.888;8.330;2024-03-23T10:01:31;6.80;73.60
75769;DHT22;64379;48.888;8.330;2024-03-23T10:03:57;6.50;75.40
75769;DHT22;64379;48.888;8.330;2024-03-23T10:06:23;6.40;76.80
75769;DHT22;64379;48.888;8.330;2024-03-23T10:12:18;6.80;77.40
75769;DHT22;64379;48.888;8.330;2024-03-23T10:14:44;7.10;76.20
75769;DHT22;64379;48.888;8.330;2024-03-23T10:17:20;7.40;75.50
75769;DHT22;64379;48.888;8.330;2024-03-23T10:19:46;7.50;74.90
75769;DHT22;64379;48.888;8.330;2024-03-23T10:22:23;7.50;74.60
75769;DHT22;64379;48.888;8.330;2024-03-23T10:24:50;7.20;75.70
75769;DHT22;64379;48.888;8.330;2024-03-23T10:27:17;7.10;76.70
75769;DHT22;64379;48.888;8.330;2024-03-23T10:30:14;7.20;77.10
75769;DHT22;64379;48.888;8.330;2024-03-23T10:33:15;7.20;76.50
75769;DHT22;64379;48.888;8.330;2024-03-23T10:42:29;7.20;76.40
75769;DHT22;64379;48.888;8.330;2024-03-23T10:45:21;8.00;76.20
75769;DHT22;64379;48.888;8.330;2024-03-23T10:48:15;8.40;73.80
75769;DHT22;64379;48.888;8.330;2024-03-23T10:50:44;8.40;74.40
75769;DHT22;64379;48.888;8.330;2024-03-23T10:57:09;8.10;73.10
75769;DHT22;64379;48.888;8.330;2024-03-23T10:59:49;7.80;72.10
75769;DHT22;64379;48.888;8.330;2024-03-23T11:02:21;7.80;73.50
75769;DHT22;64379;48.888;8.330;2024-03-23T11:04:47;7.80;72.40
75769;DHT22;64379;48.888;8.330;2024-03-23T11:09:58;8.20;72.80
75769;DHT22;64379;48.888;8.330;2024-03-23T11:14:51;8.20;70.90
75769;DHT22;64379;48.888;8.330;2024-03-23T11:17:21;8.20;71.40
75769;DHT22;64379;48.888;8.330;2024-03-23T11:20:03;8.50;70.30
75769;DHT22;64379;48.888;8.330;2024-03-23T11:22:44;8.40;69.70
75769;DHT22;64379;48.888;8.330;2024-03-23T11:27:38;8.50;68.70
75769;DHT22;64379;48.888;8.330;2024-03-23T11:32:42;9.20;66.20
75769;DHT22;64379;48.888;8.330;2024-03-23T11:35:08;9.40;64.30
75769;DHT22;64379;48.888;8.330;2024-03-23T11:37:36;9.40;63.40
75769;DHT22;64379;48.888;8.330;2024-03-23T11:40:17;9.60;63.20
75769;DHT22;64379;48.888;8.330;2024-03-23T11:42:43;10.80;61.80
75769;DHT22;64379;48.888;8.330;2024-03-23T11:45:09;11.70;57.90
75769;DHT22;64379;48.888;8.330;2024-03-23T11:47:37;12.00;57.50
75769;DHT22;64379;48.888;8.330;2024-03-23T11:50:20;12.00;56.90
75769;DHT22;64379;48.888;8.330;2024-03-23T11:52:46;12.50;56.20
75769;DHT22;64379;48.888;8.330;2024-03-23T11:55:19;12.50;55.40
75769;DHT22;64379;48.888;8.330;2024-03-23T11:57:45;12.50;55.70
75769;DHT22;64379;48.888;8.330;2024-03-23T12:00:23;11.50;57.60
75769;DHT22;64379;48.888;8.330;2024-03-23T12:02:49;11.60;57.10
75769;DHT22;64379;48.888;8.330;2024-03-23T12:05:33;12.00;57.60
75769;DHT22;64379;48.888;8.330;2024-03-23T12:11:36;12.40;55.90
75769;DHT22;64379;48.888;8.330;2024-03-23T12:14:01;12.10;56.40
75769;DHT22;64379;48.888;8.330;2024-03-23T12:16:33;10.90;57.70
75769;DHT22;64379;48.888;8.330;2024-03-23T12:19:19;10.40;59.10
75769;DHT22;64379;48.888;8.330;2024-03-23T12:22:21;9.70;61.10
75769;DHT22;64379;48.888;8.330;2024-03-23T12:24:53;9.60;62.20
75769;DHT22;64379;48.888;8.330;2024-03-23T12:30:08;11.10;59.90
75769;DHT22;64379;48.888;8.330;2024-03-23T12:36:15;11.70;55.70
75769;DHT22;64379;48.888;8.330;2024-03-23T12:38:43;11.10;55.80
75769;DHT22;64379;48.888;8.330;2024-03-23T12:41:39;10.90;56.90
75769;DHT22;64379;48.888;8.330;2024-03-23T12:44:07;10.80;56.80
75769;DHT22;64379;48.888;8.330;2024-03-23T12:46:37;10.60;57.30
75769;DHT22;64379;48.888;8.330;2024-03-23T12:49:05;10.40;57.60
75769;DHT22;64379;48.888;8.330;2024-03-23T12:57:19;9.60;61.30
75769;DHT22;64379;48.888;8.330;2024-03-23T13:00:01;9.20;58.40
75769;DHT22;64379;48.888;8.330;2024-03-23T13:02:38;8.90;58.40
75769;DHT22;64379;48.888;8.330;2024-03-23T13:05:10;8.80;58.90
75769;DHT22;64379;48.888;8.330;2024-03-23T13:07:39;8.60;58.40
75769;DHT22;64379;48.888;8.330;2024-03-23T13:16:19;9.70;57.40
75769;DHT22;64379;48.888;8.330;2024-03-23T13:18:58;10.90;54.80
75769;DHT22;64379;48.888;8.330;2024-03-23T13:21:39;11.70;52.80
75769;DHT22;64379;48.888;8.330;2024-03-23T13:24:05;12.20;50.90
75769;DHT22;64379;48.888;8.330;2024-03-23T13:26:31;11.50;51.00
75769;DHT22;64379;48.888;8.330;2024-03-23T13:28:56;10.90;53.10
75769;DHT22;64379;48.888;8.330;2024-03-23T13:31:22;10.00;57.80
75769;DHT22;64379;48.888;8.330;2024-03-23T13:33:48;9.20;59.80
75769;DHT22;64379;48.888;8.330;2024-03-23T13:36:14;8.60;62.20
75769;DHT22;64379;48.888;8.330;2024-03-23T13:38:39;8.60;62.20
75769;DHT22;64379;48.888;8.330;2024-03-23T13:41:05;8.80;61.40
75769;DHT22;64379;48.888;8.330;2024-03-23T13:43:32;8.80;59.40
75769;DHT22;64379;48.888;8.330;2024-03-23T13:45:59;8.90;59.00
75769;DHT22;64379;48.888;8.330;2024-03-23T13:48:26;9.50;57.00
75769;DHT22;64379;48.888;8.330;2024-03-23T13:51:04;10.10;54.80
75769;DHT22;64379;48.888;8.330;2024-03-23T13:53:30;10.20;54.60
75769;DHT22;64379;48.888;8.330;2024-03-23T13:55:57;10.40;54.20
75769;DHT22;64379;48.888;8.330;2024-03-23T13:58:23;10.50;53.10
75769;DHT22;64379;48.888;8.330;2024-03-23T14:00:52;11.00;51.40
75769;DHT22;64379;48.888;8.330;2024-03-23T14:03:17;10.90;52.20
75769;DHT22;64379;48.888;8.330;2024-03-23T14:05:46;11.00;51.50
75769;DHT22;64379;48.888;8.330;2024-03-23T14:08:17;11.00;52.20
75769;DHT22;64379;48.888;8.330;2024-03-23T14:10:42;11.40;50.80
75769;DHT22;64379;48.888;8.330;2024-03-23T14:13:08;10.40;53.80
75769;DHT22;64379;48.888;8.330;2024-03-23T14:15:34;10.20;56.70
75769;DHT22;64379;48.888;8.330;2024-03-23T14:18:02;9.70;59.40
75769;DHT22;64379;48.888;8.330;2024-03-23T14:20:28;9.00;62.50
75769;DHT22;64379;48.888;8.330;2024-03-23T14:22:53;7.70;66.90
75769;DHT22;64379;48.888;8.330;2024-03-23T14:25:19;7.20;69.90
75769;DHT22;64379;48.888;8.330;2024-03-23T14:27:46;7.50;70.40
75769;DHT22;64379;48.888;8.330;2024-03-23T14:30:12;8.00;71.20
75769;DHT22;64379;48.888;8.330;2024-03-23T14:32:38;8.50;70.20
75769;DHT22;64379;48.888;8.330;2024-03-23T14:35:04;8.60;69.40
75769;DHT22;64379;48.888;8.330;2024-03-23T14:37:30;8.70;66.70
75769;DHT22;64379;48.888;8.330;2024-03-23T14:39:57;8.70;64.80
75769;DHT22;64379;48.888;8.330;2024-03-23T14:42:23;8.50;63.30
75769;DHT22;64379;48.888;8.330;2024-03-23T14:44:49;8.30;65.70
75769;DHT22;64379;48.888;8.330;2024-03-23T14:47:15;8.50;65.20
75769;DHT22;64379;48.888;8.330;2024-03-23T14:49:43;8.60;64.20
75769;DHT22;64379;48.888;8.330;2024-03-23T14:52:13;8.30;63.90
75769;DHT22;64379;48.888;8.330;2024-03-23T14:54:38;8.10;63.90
75769;DHT22;64379;48.888;8.330;2024-03-23T14:57:04;8.10;64.70
75769;DHT22;64379;48.888;8.330;2024-03-23T14:59:30;8.10;64.00
75769;DHT22;64379;48.888;8.330;2024-03-23T15:01:56;8.40;64.00
75769;DHT22;64379;48.888;8.330;2024-03-23T15:04:21;9.00;64.40
75769;DHT22;64379;48.888;8.330;2024-03-23T15:06:47;9.40;63.60
75769;DHT22;64379;48.888;8.330;2024-03-23T15:09:15;9.50;60.20
75769;DHT22;64379;48.888;8.330;2024-03-23T15:11:40;9.20;61.40
75769;DHT22;64379;48.888;8.330;2024-03-23T15:14:06;9.00;61.90
75769;DHT22;64379;48.888;8.330;2024-03-23T15:16:33;9.00;62.20
75769;DHT22;64379;48.888;8.330;2024-03-23T15:18:58;8.90;62.50
75769;DHT22;64379;48.888;8.330;2024-03-23T15:21:24;9.00;62.20
75769;DHT22;64379;48.888;8.330;2024-03-23T15:23:50;9.00;61.70
75769;DHT22;64379;48.888;8.330;2024-03-23T15:26:15;8.80;62.30
75769;DHT22;64379;48.888;8.330;2024-03-23T15:28:41;8.80;62.70
75769;DHT22;64379;48.888;8.330;2024-03-23T15:31:27;8.60;63.00
75769;DHT22;64379;48.888;8.330;2024-03-23T15:33:54;8.60;63.80
75769;DHT22;64379;48.888;8.330;2024-03-23T15:36:20;8.50;64.00
75769;DHT22;64379;48.888;8.330;2024-03-23T15:38:45;8.40;64.20
75769;DHT22;64379;48.888;8.330;2024-03-23T15:41:11;8.30;64.80
75769;DHT22;64379;48.888;8.330;2024-03-23T15:43:37;8.20;66.00
75769;DHT22;64379;48.888;8.330;2024-03-23T15:46:04;8.10;67.30
75769;DHT22;64379;48.888;8.330;2024-03-23T15:48:31;8.00;66.80
75769;DHT22;64379;48.888;8.330;2024-03-23T15:50:58;7.80;67.20
75769;DHT22;64379;48.888;8.330;2024-03-23T15:53:25;7.80;66.10
75769;DHT22;64379;48.888;8.330;2024-03-23T15:58:20;7.60;63.70
75769;DHT22;64379;48.888;8.330;2024-03-23T16:00:53;7.70;64.90
75769;DHT22;64379;48.888;8.330;2024-03-23T16:03:19;7.80;64.90
75769;DHT22;64379;48.888;8.330;2024-03-23T16:05:53;7.80;63.40
75769;DHT22;64379;48.888;8.330;2024-03-23T16:08:19;7.80;63.30
75769;DHT22;64379;48.888;8.330;2024-03-23T16:10:45;7.80;63.20
75769;DHT22;64379;48.888;8.330;2024-03-23T16:13:11;7.80;64.20
75769;DHT22;64379;48.888;8.330;2024-03-23T16:15:36;7.60;66.10
75769;DHT22;64379;48.888;8.330;2024-03-23T16:18:02;7.50;67.40
75769;DHT22;64379;48.888;8.330;2024-03-23T16:20:28;7.50;68.00
75769;DHT22;64379;48.888;8.330;2024-03-23T16:22:53;7.50;67.50
75769;DHT22;64379;48.888;8.330;2024-03-23T16:25:19;7.40;67.30
75769;DHT22;64379;48.888;8.330;2024-03-23T16:27:45;7.30;67.50
75769;DHT22;64379;48.888;8.330;2024-03-23T16:30:11;7.10;68.00
75769;DHT22;64379;48.888;8.330;2024-03-23T16:32:37;7.00;69.00
75769;DHT22;64379;48.888;8.330;2024-03-23T16:35:04;6.90;68.70
75769;DHT22;64379;48.888;8.330;2024-03-23T16:37:30;6.70;69.50
75769;DHT22;64379;48.888;8.330;2024-03-23T16:39:56;6.70;70.00
75769;DHT22;64379;48.888;8.330;2024-03-23T16:42:22;6.70;70.20
75769;DHT22;64379;48.888;8.330;2024-03-23T16:44:47;6.70;70.30
75769;DHT22;64379;48.888;8.330;2024-03-23T16:47:13;6.70;70.20
75769;DHT22;64379;48.888;8.330;2024-03-23T16:49:39;6.70;70.20
75769;DHT22;64379;48.888;8.330;2024-03-23T16:52:04;6.70;70.10
75769;DHT22;64379;48.888;8.330;2024-03-23T16:54:30;6.80;69.30
75769;DHT22;64379;48.888;8.330;2024-03-23T16:56:56;6.80;68.90
75769;DHT22;64379;48.888;8.330;2024-03-23T16:59:22;6.90;68.00
75769;DHT22;64379;48.888;8.330;2024-03-23T17:01:47;7.00;68.50
75769;DHT22;64379;48.888;8.330;2024-03-23T17:04:13;6.50;72.90
75769;DHT22;64379;48.888;8.330;2024-03-23T17:06:39;6.00;76.20
75769;DHT22;64379;48.888;8.330;2024-03-23T17:09:05;5.60;78.30
75769;DHT22;64379;48.888;8.330;2024-03-23T17:11:35;5.40;79.90
75769;DHT22;64379;48.888;8.330;2024-03-23T17:14:00;5.30;79.90
75769;DHT22;64379;48.888;8.330;2024-03-23T17:16:26;5.30;80.10
75769;DHT22;64379;48.888;8.330;2024-03-23T17:18:56;5.20;79.80
75769;DHT22;64379;48.888;8.330;2024-03-23T17:21:21;5.20;79.50
75769;DHT22;64379;48.888;8.330;2024-03-23T17:23:48;5.20;79.10
75769;DHT22;64379;48.888;8.330;2024-03-23T17:26:15;5.20;79.10
75769;DHT22;64379;48.888;8.330;2024-03-23T17:28:46;5.20;79.20
75769;DHT22;64379;48.888;8.330;2024-03-23T17:31:16;5.20;79.30
75769;DHT22;64379;48.888;8.330;2024-03-23T17:33:41;5.20;79.20
75769;DHT22;64379;48.888;8.330;2024-03-23T17:36:07;5.30;79.60
75769;DHT22;64379;48.888;8.330;2024-03-23T17:38:33;5.30;79.70